sensor_id;sensor_type;location;lat;lon;timestamp;pressure;altitude;pressure_sealevel;temperature;humidity
62126;BME280;48112;53.282;6.150;2022-07-23T00:00:04;102014.84;;;18.64;62.45
62126;BME280;48112;53.282;6.150;2022-07-23T00:01:08;102015.22;;;18.63;62.59
62126;BME280;48112;53.282;6.150;2022-07-23T00:02:11;102017.16;;;18.62;62.66
62126;BME280;48112;53.282;6.150;2022-07-23T00:03:14;102011.69;;;18.62;62.77
62126;BME280;48112;53.282;6.150;2022-07-23T00:04:18;102003.47;;;18.62;62.74
62126;BME280;48112;53.282;6.150;2022-07-23T00:05:21;102010.50;;;18.63;62.68
62126;BME280;48112;53.282;6.150;2022-07-23T00:06:25;102013.69;;;18.65;62.67
62126;BME280;48112;53.282;6.150;2022-07-23T00:07:27;102009.00;;;18.66;62.61
62126;BME280;48112;53.282;6.150;2022-07-23T00:08:31;102010.56;;;18.67;62.74
62126;BME280;48112;53.282;6.150;2022-07-23T00:09:34;102010.22;;;18.68;62.82
62126;BME280;48112;53.282;6.150;2022-07-23T00:10:37;102010.56;;;18.67;62.82
62126;BME280;48112;53.282;6.150;2022-07-23T00:11:41;102009.06;;;18.69;62.86
62126;BME280;48112;53.282;6.150;2022-07-23T00:12:45;102011.81;;;18.69;62.67
62126;BME280;48112;53.282;6.150;2022-07-23T00:13:53;102014.53;;;18.69;62.60
62126;BME280;48112;53.282;6.150;2022-07-23T00:14:57;102014.94;;;18.71;62.93
62126;BME280;48112;53.282;6.150;2022-07-23T00:15:59;102007.91;;;18.70;62.84
62126;BME280;48112;53.282;6.150;2022-07-23T00:17:03;102010.63;;;18.70;62.71
62126;BME280;48112;53.282;6.150;2022-07-23T00:18:06;102005.97;;;18.71;62.82
62126;BME280;48112;53.282;6.150;2022-07-23T00:19:09;102011.81;;;18.69;62.73
62126;BME280;48112;53.282;6.150;2022-07-23T00:20:12;102002.78;;;18.69;62.96
62126;BME280;48112;53.282;6.150;2022-07-23T00:21:15;102005.91;;;18.67;62.96
62126;BME280;48112;53.282;6.150;2022-07-23T00:22:18;102003.97;;;18.68;62.99
62126;BME280;48112;53.282;6.150;2022-07-23T00:23:21;102005.91;;;18.67;62.86
62126;BME280;48112;53.282;6.150;2022-07-23T00:24:24;102004.31;;;18.66;62.93
62126;BME280;48112;53.282;6.150;2022-07-23T00:25:27;102005.47;;;18.65;63.13
62126;BME280;48112;53.282;6.150;2022-07-23T00:26:32;101993.31;;;18.63;63.19
62126;BME280;48112;53.282;6.150;2022-07-23T00:27:37;102002.75;;;18.65;63.14
62126;BME280;48112;53.282;6.150;2022-07-23T00:28:39;102001.16;;;18.64;63.00
62126;BME280;48112;53.282;6.150;2022-07-23T00:29:43;102004.28;;;18.63;62.90
62126;BME280;48112;53.282;6.150;2022-07-23T00:30:45;101997.56;;;18.60;63.28
62126;BME280;48112;53.282;6.150;2022-07-23T00:31:49;101993.25;;;18.59;63.38
62126;BME280;48112;53.282;6.150;2022-07-23T00:32:53;101997.94;;;18.59;63.37
62126;BME280;48112;53.282;6.150;2022-07-23T00:33:58;101992.84;;;18.57;63.47
62126;BME280;48112;53.282;6.150;2022-07-23T00:35:04;101994.78;;;18.57;63.31
62126;BME280;48112;53.282;6.150;2022-07-23T00:36:08;101994.38;;;18.55;63.29
62126;BME280;48112;53.282;6.150;2022-07-23T00:37:10;101995.13;;;18.55;63.58
62126;BME280;48112;53.282;6.150;2022-07-23T00:38:14;101991.25;;;18.56;63.48
62126;BME280;48112;53.282;6.150;2022-07-23T00:39:16;101989.31;;;18.57;63.34
62126;BME280;48112;53.282;6.150;2022-07-23T00:40:20;101988.53;;;18.56;63.72
62126;BME280;48112;53.282;6.150;2022-07-23T00:41:23;101992.41;;;18.55;63.47
62126;BME280;48112;53.282;6.150;2022-07-23T00:42:26;101991.25;;;18.56;63.37
62126;BME280;48112;53.282;6.150;2022-07-23T00:43:30;101994.72;;;18.53;63.38
62126;BME280;48112;53.282;6.150;2022-07-23T00:44:34;101989.25;;;18.53;63.86
62126;BME280;48112;53.282;6.150;2022-07-23T00:45:36;101984.94;;;18.52;63.70
62126;BME280;48112;53.282;6.150;2022-07-23T00:46:46;101989.25;;;18.53;63.62
62126;BME280;48112;53.282;6.150;2022-07-23T00:47:49;101983.00;;;18.53;63.62
62126;BME280;48112;53.282;6.150;2022-07-23T00:48:53;101981.44;;;18.52;63.69
62126;BME280;48112;53.282;6.150;2022-07-23T00:49:55;101979.47;;;18.52;63.80
62126;BME280;48112;53.282;6.150;2022-07-23T00:50:59;101984.94;;;18.52;63.83
62126;BME280;48112;53.282;6.150;2022-07-23T00:52:02;101983.78;;;18.53;63.72
62126;BME280;48112;53.282;6.150;2022-07-23T00:53:06;101983.00;;;18.53;63.70
62126;BME280;48112;53.282;6.150;2022-07-23T00:54:10;101981.06;;;18.53;63.73
62126;BME280;48112;53.282;6.150;2022-07-23T00:55:14;101977.53;;;18.53;63.68
62126;BME280;48112;53.282;6.150;2022-07-23T00:56:16;101985.31;;;18.51;63.84
62126;BME280;48112;53.282;6.150;2022-07-23T00:57:20;101986.47;;;18.50;63.71
62126;BME280;48112;53.282;6.150;2022-07-23T00:58:31;101988.78;;;18.48;63.89
62126;BME280;48112;53.282;6.150;2022-07-23T00:59:38;101985.97;;;18.44;63.98
62126;BME280;48112;53.282;6.150;2022-07-23T01:00:40;101983.59;;;18.43;64.04
62126;BME280;48112;53.282;6.150;2022-07-23T01:01:44;101987.50;;;18.42;63.98
62126;BME280;48112;53.282;6.150;2022-07-23T01:02:47;101979.66;;;18.40;63.97
62126;BME280;48112;53.282;6.150;2022-07-23T01:03:51;101976.50;;;18.38;64.36
62126;BME280;48112;53.282;6.150;2022-07-23T01:04:54;101975.69;;;18.38;64.30
62126;BME280;48112;53.282;6.150;2022-07-23T01:05:58;101974.09;;;18.37;64.21
62126;BME280;48112;53.282;6.150;2022-07-23T01:07:01;101971.72;;;18.35;64.42
62126;BME280;48112;53.282;6.150;2022-07-23T01:08:06;101971.72;;;18.35;64.09
62126;BME280;48112;53.282;6.150;2022-07-23T01:09:09;101970.16;;;18.34;64.38
62126;BME280;48112;53.282;6.150;2022-07-23T01:10:12;101970.91;;;18.31;64.18
62126;BME280;48112;53.282;6.150;2022-07-23T01:11:35;101962.25;;;18.29;64.09
62126;BME280;48112;53.282;6.150;2022-07-23T01:12:41;101956.72;;;18.26;64.41
62126;BME280;48112;53.282;6.150;2022-07-23T01:13:46;101963.72;;;18.23;64.65
62126;BME280;48112;53.282;6.150;2022-07-23T01:14:55;101965.66;;;18.23;64.68
62126;BME280;48112;53.282;6.150;2022-07-23T01:16:00;101961.34;;;18.22;64.59
62126;BME280;48112;53.282;6.150;2022-07-23T01:17:03;101952.34;;;18.21;64.41
62126;BME280;48112;53.282;6.150;2022-07-23T01:18:08;101959.75;;;18.21;65.03
62126;BME280;48112;53.282;6.150;2022-07-23T01:19:13;101966.03;;;18.21;64.72
62126;BME280;48112;53.282;6.150;2022-07-23T01:20:16;101957.38;;;18.19;64.85
62126;BME280;48112;53.282;6.150;2022-07-23T01:21:19;101954.97;;;18.14;64.90
62126;BME280;48112;53.282;6.150;2022-07-23T01:22:28;101960.84;;;18.16;64.87
62126;BME280;48112;53.282;6.150;2022-07-23T01:23:31;101961.59;;;18.13;65.01
62126;BME280;48112;53.282;6.150;2022-07-23T01:24:34;101958.03;;;18.09;65.28
62126;BME280;48112;53.282;6.150;2022-07-23T01:25:48;101964.19;;;18.06;65.09
62126;BME280;48112;53.282;6.150;2022-07-23T01:26:51;101957.16;;;18.05;65.13
62126;BME280;48112;53.282;6.150;2022-07-23T01:27:54;101960.63;;;18.02;65.64
62126;BME280;48112;53.282;6.150;2022-07-23T01:28:58;101957.81;;;17.99;65.48
62126;BME280;48112;53.282;6.150;2022-07-23T01:30:03;101953.88;;;17.96;65.68
62126;BME280;48112;53.282;6.150;2022-07-23T01:31:07;101949.91;;;17.93;65.66
62126;BME280;48112;53.282;6.150;2022-07-23T01:32:10;101963.94;;;17.92;65.67
62126;BME280;48112;53.282;6.150;2022-07-23T01:33:14;101952.16;;;17.88;65.75
62126;BME280;48112;53.282;6.150;2022-07-23T01:34:17;101961.56;;;17.90;65.91
62126;BME280;48112;53.282;6.150;2022-07-23T01:35:21;101963.09;;;17.88;65.57
62126;BME280;48112;53.282;6.150;2022-07-23T01:36:25;101967.31;;;17.85;66.47
62126;BME280;48112;53.282;6.150;2022-07-23T01:37:30;101961.44;;;17.83;65.94
62126;BME280;48112;53.282;6.150;2022-07-23T01:38:33;101950.44;;;17.80;66.09
62126;BME280;48112;53.282;6.150;2022-07-23T01:39:36;101954.34;;;17.79;66.40
62126;BME280;48112;53.282;6.150;2022-07-23T01:40:39;101951.19;;;17.77;66.13
62126;BME280;48112;53.282;6.150;2022-07-23T01:41:44;101955.41;;;17.74;66.25
62126;BME280;48112;53.282;6.150;2022-07-23T01:42:53;101949.16;;;17.74;66.59
62126;BME280;48112;53.282;6.150;2022-07-23T01:43:57;101944.84;;;17.73;66.40
62126;BME280;48112;53.282;6.150;2022-07-23T01:45:00;101955.75;;;17.73;66.33
62126;BME280;48112;53.282;6.150;2022-07-23T01:46:04;101947.94;;;17.71;66.52
62126;BME280;48112;53.282;6.150;2022-07-23T01:47:13;101947.94;;;17.71;66.28
62126;BME280;48112;53.282;6.150;2022-07-23T01:48:17;101953.41;;;17.71;66.94
62126;BME280;48112;53.282;6.150;2022-07-23T01:49:36;101948.72;;;17.72;66.67
62126;BME280;48112;53.282;6.150;2022-07-23T01:51:08;101947.16;;;17.71;66.29
62126;BME280;48112;53.282;6.150;2022-07-23T01:52:16;101940.91;;;17.70;66.24
62126;BME280;48112;53.282;6.150;2022-07-23T01:53:24;101939.34;;;17.69;66.40
62126;BME280;48112;53.282;6.150;2022-07-23T01:54:30;101932.28;;;17.68;66.48
62126;BME280;48112;53.282;6.150;2022-07-23T01:55:33;101939.34;;;17.69;66.47
62126;BME280;48112;53.282;6.150;2022-07-23T01:56:38;101933.88;;;17.69;66.21
62126;BME280;48112;53.282;6.150;2022-07-23T01:57:40;101931.47;;;17.68;66.43
62126;BME280;48112;53.282;6.150;2022-07-23T01:58:45;101927.97;;;17.67;66.46
62126;BME280;48112;53.282;6.150;2022-07-23T01:59:47;101929.09;;;17.66;66.44
62126;BME280;48112;53.282;6.150;2022-07-23T02:00:54;101929.47;;;17.65;66.27
62126;BME280;48112;53.282;6.150;2022-07-23T02:01:57;101936.44;;;17.62;66.12
62126;BME280;48112;53.282;6.150;2022-07-23T02:03:02;101939.09;;;17.59;66.47
62126;BME280;48112;53.282;6.150;2022-07-23T02:04:05;101944.13;;;17.57;66.32
62126;BME280;48112;53.282;6.150;2022-07-23T02:05:09;101943.72;;;17.55;66.72
62126;BME280;48112;53.282;6.150;2022-07-23T02:06:12;101944.09;;;17.53;66.65
62126;BME280;48112;53.282;6.150;2022-07-23T02:07:16;101942.84;;;17.51;66.29
62126;BME280;48112;53.282;6.150;2022-07-23T02:08:18;101936.97;;;17.49;66.39
62126;BME280;48112;53.282;6.150;2022-07-23T02:09:23;101935.03;;;17.49;66.59
62126;BME280;48112;53.282;6.150;2022-07-23T02:10:26;101932.66;;;17.48;66.58
62126;BME280;48112;53.282;6.150;2022-07-23T02:11:30;101931.09;;;17.47;66.79
62126;BME280;48112;53.282;6.150;2022-07-23T02:12:32;101933.38;;;17.45;66.77
62126;BME280;48112;53.282;6.150;2022-07-23T02:13:35;101931.78;;;17.44;66.74
62126;BME280;48112;53.282;6.150;2022-07-23T02:14:38;101926.69;;;17.42;66.59
62126;BME280;48112;53.282;6.150;2022-07-23T02:15:43;101925.44;;;17.40;66.67
62126;BME280;48112;53.282;6.150;2022-07-23T02:16:46;101919.97;;;17.40;66.88
62126;BME280;48112;53.282;6.150;2022-07-23T02:17:49;101923.06;;;17.38;66.67
62126;BME280;48112;53.282;6.150;2022-07-23T02:18:52;101922.28;;;17.38;67.22
62126;BME280;48112;53.282;6.150;2022-07-23T02:19:55;101916.41;;;17.36;66.95
62126;BME280;48112;53.282;6.150;2022-07-23T02:20:58;101919.13;;;17.36;67.13
62126;BME280;48112;53.282;6.150;2022-07-23T02:22:02;101916.03;;;17.37;66.94
62126;BME280;48112;53.282;6.150;2022-07-23T02:23:07;101922.28;;;17.38;66.82
62126;BME280;48112;53.282;6.150;2022-07-23T02:24:10;101923.06;;;17.38;67.05
62126;BME280;48112;53.282;6.150;2022-07-23T02:25:17;101926.59;;;17.39;66.56
62126;BME280;48112;53.282;6.150;2022-07-23T02:26:20;101925.44;;;17.40;66.64
62126;BME280;48112;53.282;6.150;2022-07-23T02:27:26;101929.31;;;17.39;66.66
62126;BME280;48112;53.282;6.150;2022-07-23T02:28:30;101925.00;;;17.38;66.55
62126;BME280;48112;53.282;6.150;2022-07-23T02:29:33;101916.31;;;17.32;66.77
62126;BME280;48112;53.282;6.150;2022-07-23T02:30:36;101920.69;;;17.37;66.84
62126;BME280;48112;53.282;6.150;2022-07-23T02:31:40;101916.41;;;17.36;66.90
62126;BME280;48112;53.282;6.150;2022-07-23T02:32:44;101914.03;;;17.34;66.83
62126;BME280;48112;53.282;6.150;2022-07-23T02:33:47;101919.84;;;17.33;66.90
62126;BME280;48112;53.282;6.150;2022-07-23T02:34:52;101913.59;;;17.32;67.07
62126;BME280;48112;53.282;6.150;2022-07-23T02:35:55;101918.25;;;17.32;66.88
62126;BME280;48112;53.282;6.150;2022-07-23T02:36:59;101912.38;;;17.30;67.05
62126;BME280;48112;53.282;6.150;2022-07-23T02:38:04;101915.53;;;17.32;67.14
62126;BME280;48112;53.282;6.150;2022-07-23T02:39:07;101915.13;;;17.30;67.01
62126;BME280;48112;53.282;6.150;2022-07-23T02:40:12;101926.03;;;17.30;67.00
62126;BME280;48112;53.282;6.150;2022-07-23T02:41:18;101921.25;;;17.27;67.15
62126;BME280;48112;53.282;6.150;2022-07-23T02:42:22;101915.41;;;17.25;67.04
62126;BME280;48112;53.282;6.150;2022-07-23T02:43:26;101924.72;;;17.24;67.25
62126;BME280;48112;53.282;6.150;2022-07-23T02:44:30;101924.34;;;17.25;67.33
62126;BME280;48112;53.282;6.150;2022-07-23T02:45:34;101926.72;;;17.27;67.35
62126;BME280;48112;53.282;6.150;2022-07-23T02:46:38;101922.88;;;17.28;67.25
62126;BME280;48112;53.282;6.150;2022-07-23T02:47:41;101924.44;;;17.29;67.32
62126;BME280;48112;53.282;6.150;2022-07-23T02:48:44;101920.56;;;17.30;67.37
62126;BME280;48112;53.282;6.150;2022-07-23T02:49:49;101920.22;;;17.31;67.46
62126;BME280;48112;53.282;6.150;2022-07-23T02:50:52;101918.63;;;17.30;67.26
62126;BME280;48112;53.282;6.150;2022-07-23T02:52:03;101920.56;;;17.30;67.04
62126;BME280;48112;53.282;6.150;2022-07-23T02:53:07;101926.38;;;17.28;66.89
62126;BME280;48112;53.282;6.150;2022-07-23T02:54:09;101924.34;;;17.25;66.92
62126;BME280;48112;53.282;6.150;2022-07-23T02:55:13;101927.88;;;17.26;67.07
62126;BME280;48112;53.282;6.150;2022-07-23T02:56:17;101931.41;;;17.26;66.93
62126;BME280;48112;53.282;6.150;2022-07-23T02:57:21;101929.81;;;17.25;67.07
62126;BME280;48112;53.282;6.150;2022-07-23T02:58:23;101936.88;;;17.26;66.94
62126;BME280;48112;53.282;6.150;2022-07-23T02:59:28;101928.31;;;17.28;66.87
62126;BME280;48112;53.282;6.150;2022-07-23T03:00:30;101931.78;;;17.25;66.85
62126;BME280;48112;53.282;6.150;2022-07-23T03:01:34;101929.03;;;17.25;67.02
62126;BME280;48112;53.282;6.150;2022-07-23T03:02:37;101929.03;;;17.25;66.75
62126;BME280;48112;53.282;6.150;2022-07-23T03:03:40;101929.03;;;17.25;66.61
62126;BME280;48112;53.282;6.150;2022-07-23T03:04:43;101932.13;;;17.23;66.79
62126;BME280;48112;53.282;6.150;2022-07-23T03:05:46;101922.78;;;17.24;66.78
62126;BME280;48112;53.282;6.150;2022-07-23T03:06:49;101922.00;;;17.24;66.61
62126;BME280;48112;53.282;6.150;2022-07-23T03:07:53;101925.16;;;17.26;66.65
62126;BME280;48112;53.282;6.150;2022-07-23T03:08:56;101929.81;;;17.25;66.67
62126;BME280;48112;53.282;6.150;2022-07-23T03:09:59;101936.06;;;17.26;66.84
62126;BME280;48112;53.282;6.150;2022-07-23T03:11:02;101933.34;;;17.26;66.48
62126;BME280;48112;53.282;6.150;2022-07-23T03:12:08;101931.78;;;17.25;66.56
62126;BME280;48112;53.282;6.150;2022-07-23T03:13:15;101932.97;;;17.27;66.47
62126;BME280;48112;53.282;6.150;2022-07-23T03:14:19;101935.34;;;17.29;66.51
62126;BME280;48112;53.282;6.150;2022-07-23T03:15:21;101927.16;;;17.29;66.50
62126;BME280;48112;53.282;6.150;2022-07-23T03:16:25;101933.41;;;17.29;66.51
62126;BME280;48112;53.282;6.150;2022-07-23T03:17:28;101931.50;;;17.30;66.53
62126;BME280;48112;53.282;6.150;2022-07-23T03:18:31;101931.13;;;17.31;66.44
62126;BME280;48112;53.282;6.150;2022-07-23T03:19:41;101929.25;;;17.35;66.20
62126;BME280;48112;53.282;6.150;2022-07-23T03:20:44;101928.44;;;17.35;66.09
62126;BME280;48112;53.282;6.150;2022-07-23T03:21:47;101929.16;;;17.32;66.07
62126;BME280;48112;53.282;6.150;2022-07-23T03:22:50;101922.88;;;17.28;66.08
62126;BME280;48112;53.282;6.150;2022-07-23T03:23:55;101923.22;;;17.26;66.30
62126;BME280;48112;53.282;6.150;2022-07-23T03:24:58;101922.00;;;17.24;66.42
62126;BME280;48112;53.282;6.150;2022-07-23T03:26:07;101920.41;;;17.23;66.41
62126;BME280;48112;53.282;6.150;2022-07-23T03:27:12;101928.16;;;17.21;66.44
62126;BME280;48112;53.282;6.150;2022-07-23T03:28:15;101923.88;;;17.20;66.57
62126;BME280;48112;53.282;6.150;2022-07-23T03:29:20;101930.91;;;17.21;66.34
62126;BME280;48112;53.282;6.150;2022-07-23T03:30:22;101925.00;;;17.19;66.09
62126;BME280;48112;53.282;6.150;2022-07-23T03:31:26;101934.34;;;17.18;66.49
62126;BME280;48112;53.282;6.150;2022-07-23T03:32:29;101925.72;;;17.16;66.59
62126;BME280;48112;53.282;6.150;2022-07-23T03:33:35;101929.59;;;17.15;66.67
62126;BME280;48112;53.282;6.150;2022-07-23T03:34:38;101938.94;;;17.14;66.81
62126;BME280;48112;53.282;6.150;2022-07-23T03:35:43;101929.16;;;17.13;66.88
62126;BME280;48112;53.282;6.150;2022-07-23T03:36:59;101942.81;;;17.13;66.71
62126;BME280;48112;53.282;6.150;2022-07-23T03:38:04;101927.59;;;17.12;66.80
62126;BME280;48112;53.282;6.150;2022-07-23T03:39:06;101927.16;;;17.10;66.89
62126;BME280;48112;53.282;6.150;2022-07-23T03:40:14;101926.31;;;17.06;66.77
62126;BME280;48112;53.282;6.150;2022-07-23T03:41:16;101931.41;;;17.07;66.97
62126;BME280;48112;53.282;6.150;2022-07-23T03:42:21;101932.47;;;17.03;66.77
62126;BME280;48112;53.282;6.150;2022-07-23T03:43:23;101928.94;;;17.02;66.84
62126;BME280;48112;53.282;6.150;2022-07-23T03:44:28;101933.19;;;17.00;66.91
62126;BME280;48112;53.282;6.150;2022-07-23T03:45:31;101930.03;;;16.98;66.94
62126;BME280;48112;53.282;6.150;2022-07-23T03:46:34;101926.84;;;16.96;66.98
62126;BME280;48112;53.282;6.150;2022-07-23T03:47:37;101931.88;;;16.94;66.95
62126;BME280;48112;53.282;6.150;2022-07-23T03:48:40;101935.31;;;16.91;66.87
62126;BME280;48112;53.282;6.150;2022-07-23T03:49:43;101929.41;;;16.89;66.96
62126;BME280;48112;53.282;6.150;2022-07-23T03:50:46;101937.19;;;16.87;67.13
62126;BME280;48112;53.282;6.150;2022-07-23T03:51:49;101935.16;;;16.84;67.14
62126;BME280;48112;53.282;6.150;2022-07-23T03:52:52;101928.13;;;16.83;67.26
62126;BME280;48112;53.282;6.150;2022-07-23T03:53:56;101922.50;;;16.76;67.54
62126;BME280;48112;53.282;6.150;2022-07-23T03:55:02;101931.09;;;16.78;67.32
62126;BME280;48112;53.282;6.150;2022-07-23T03:56:05;101924.88;;;16.77;67.64
62126;BME280;48112;53.282;6.150;2022-07-23T03:57:09;101926.81;;;16.77;67.41
62126;BME280;48112;53.282;6.150;2022-07-23T03:58:13;101925.59;;;16.74;67.53
62126;BME280;48112;53.282;6.150;2022-07-23T03:59:18;101924.34;;;16.72;67.61
62126;BME280;48112;53.282;6.150;2022-07-23T04:00:25;101925.97;;;16.73;67.70
62126;BME280;48112;53.282;6.150;2022-07-23T04:01:28;101925.97;;;16.73;67.54
62126;BME280;48112;53.282;6.150;2022-07-23T04:02:32;101929.81;;;16.72;67.43
62126;BME280;48112;53.282;6.150;2022-07-23T04:03:36;101922.00;;;16.70;67.66
62126;BME280;48112;53.282;6.150;2022-07-23T04:04:38;101927.00;;;16.68;67.65
62126;BME280;48112;53.282;6.150;2022-07-23T04:05:42;101928.94;;;16.68;67.68
62126;BME280;48112;53.282;6.150;2022-07-23T04:06:47;101931.69;;;16.68;67.77
62126;BME280;48112;53.282;6.150;2022-07-23T04:07:51;101925.34;;;16.64;67.76
62126;BME280;48112;53.282;6.150;2022-07-23T04:08:54;101928.50;;;16.66;67.70
62126;BME280;48112;53.282;6.150;2022-07-23T04:09:58;101930.78;;;16.64;67.81
62126;BME280;48112;53.282;6.150;2022-07-23T04:11:02;101927.66;;;16.62;67.79
62126;BME280;48112;53.282;6.150;2022-07-23T04:12:06;101939.31;;;16.62;68.03
62126;BME280;48112;53.282;6.150;2022-07-23T04:13:09;101921.75;;;16.60;67.95
62126;BME280;48112;53.282;6.150;2022-07-23T04:14:14;101930.72;;;16.60;68.10
62126;BME280;48112;53.282;6.150;2022-07-23T04:15:16;101931.50;;;16.61;68.15
62126;BME280;48112;53.282;6.150;2022-07-23T04:16:20;101931.16;;;16.62;68.23
62126;BME280;48112;53.282;6.150;2022-07-23T04:17:22;101933.09;;;16.62;68.12
62126;BME280;48112;53.282;6.150;2022-07-23T04:18:26;101924.56;;;16.63;68.08
62126;BME280;48112;53.282;6.150;2022-07-23T04:19:35;101936.69;;;16.66;67.86
62126;BME280;48112;53.282;6.150;2022-07-23T04:20:43;101931.69;;;16.68;67.85
62126;BME280;48112;53.282;6.150;2022-07-23T04:21:46;101932.44;;;16.68;67.73
62126;BME280;48112;53.282;6.150;2022-07-23T04:22:49;101929.31;;;16.66;68.07
62126;BME280;48112;53.282;6.150;2022-07-23T04:23:52;101932.53;;;16.72;67.74
62126;BME280;48112;53.282;6.150;2022-07-23T04:24:56;101939.59;;;16.73;67.73
62126;BME280;48112;53.282;6.150;2022-07-23T04:26:00;101933.78;;;16.74;67.73
62126;BME280;48112;53.282;6.150;2022-07-23T04:27:04;101934.56;;;16.75;67.49
62126;BME280;48112;53.282;6.150;2022-07-23T04:28:08;101943.19;;;16.77;67.54
62126;BME280;48112;53.282;6.150;2022-07-23T04:29:10;101938.88;;;16.76;67.53
62126;BME280;48112;53.282;6.150;2022-07-23T04:30:15;101940.44;;;16.77;67.31
62126;BME280;48112;53.282;6.150;2022-07-23T04:31:18;101930.69;;;16.76;67.44
62126;BME280;48112;53.282;6.150;2022-07-23T04:32:21;101944.34;;;16.76;67.58
62126;BME280;48112;53.282;6.150;2022-07-23T04:33:24;101935.72;;;16.74;67.42
62126;BME280;48112;53.282;6.150;2022-07-23T04:34:30;101939.25;;;16.74;67.36
62126;BME280;48112;53.282;6.150;2022-07-23T04:35:33;101943.09;;;16.73;67.46
62126;BME280;48112;53.282;6.150;2022-07-23T04:36:46;101944.59;;;16.71;67.29
62126;BME280;48112;53.282;6.150;2022-07-23T04:37:49;101943.03;;;16.70;67.46
62126;BME280;48112;53.282;6.150;2022-07-23T04:38:53;101946.44;;;16.67;67.44
62126;BME280;48112;53.282;6.150;2022-07-23T04:39:56;101937.84;;;16.65;67.59
62126;BME280;48112;53.282;6.150;2022-07-23T04:41:00;101933.53;;;16.64;67.43
62126;BME280;48112;53.282;6.150;2022-07-23T04:42:03;101924.56;;;16.63;67.67
62126;BME280;48112;53.282;6.150;2022-07-23T04:43:07;101938.56;;;16.62;67.43
62126;BME280;48112;53.282;6.150;2022-07-23T04:44:15;101939.31;;;16.62;67.74
62126;BME280;48112;53.282;6.150;2022-07-23T04:45:20;101940.47;;;16.61;67.61
62126;BME280;48112;53.282;6.150;2022-07-23T04:46:23;101934.69;;;16.63;67.50
62126;BME280;48112;53.282;6.150;2022-07-23T04:47:26;101933.88;;;16.62;67.75
62126;BME280;48112;53.282;6.150;2022-07-23T04:48:31;101929.66;;;16.65;67.69
62126;BME280;48112;53.282;6.150;2022-07-23T04:49:42;101933.16;;;16.65;67.84
62126;BME280;48112;53.282;6.150;2022-07-23T04:50:46;101936.34;;;16.67;67.71
62126;BME280;48112;53.282;6.150;2022-07-23T04:51:57;101938.34;;;16.70;67.60
62126;BME280;48112;53.282;6.150;2022-07-23T04:53:00;101934.13;;;16.73;67.61
62126;BME280;48112;53.282;6.150;2022-07-23T04:54:03;101941.16;;;16.74;67.42
62126;BME280;48112;53.282;6.150;2022-07-23T04:55:07;101944.34;;;16.76;67.32
62126;BME280;48112;53.282;6.150;2022-07-23T04:56:10;101933.06;;;16.77;67.43
62126;BME280;48112;53.282;6.150;2022-07-23T04:57:13;101942.47;;;16.80;67.40
62126;BME280;48112;53.282;6.150;2022-07-23T04:58:16;101942.91;;;16.82;67.43
62126;BME280;48112;53.282;6.150;2022-07-23T04:59:19;101943.34;;;16.84;67.48
62126;BME280;48112;53.282;6.150;2022-07-23T05:00:28;101938.41;;;16.89;67.19
62126;BME280;48112;53.282;6.150;2022-07-23T05:01:32;101945.88;;;16.92;67.06
62126;BME280;48112;53.282;6.150;2022-07-23T05:02:35;101944.03;;;16.96;67.16
62126;BME280;48112;53.282;6.150;2022-07-23T05:03:38;101942.50;;;16.99;67.12
62126;BME280;48112;53.282;6.150;2022-07-23T05:04:41;101946.47;;;17.01;66.96
62126;BME280;48112;53.282;6.150;2022-07-23T05:05:43;101944.16;;;17.03;66.79
62126;BME280;48112;53.282;6.150;2022-07-23T05:06:50;101948.53;;;17.08;66.77
62126;BME280;48112;53.282;6.150;2022-07-23T05:07:52;101946.69;;;17.12;66.71
62126;BME280;48112;53.282;6.150;2022-07-23T05:08:55;101948.25;;;17.13;66.64
62126;BME280;48112;53.282;6.150;2022-07-23T05:09:58;101949.88;;;17.14;66.73
62126;BME280;48112;53.282;6.150;2022-07-23T05:11:02;101950.28;;;17.16;66.41
62126;BME280;48112;53.282;6.150;2022-07-23T05:12:06;101952.66;;;17.17;66.53
62126;BME280;48112;53.282;6.150;2022-07-23T05:13:09;101955.81;;;17.19;66.46
62126;BME280;48112;53.282;6.150;2022-07-23T05:14:13;101953.53;;;17.21;66.27
62126;BME280;48112;53.282;6.150;2022-07-23T05:15:16;101949.28;;;17.24;66.25
62126;BME280;48112;53.282;6.150;2022-07-23T05:16:21;101955.19;;;17.26;66.14
62126;BME280;48112;53.282;6.150;2022-07-23T05:17:24;101951.72;;;17.29;66.23
62126;BME280;48112;53.282;6.150;2022-07-23T05:18:27;101955.69;;;17.31;66.17
62126;BME280;48112;53.282;6.150;2022-07-23T05:19:31;101959.63;;;17.34;66.17
62126;BME280;48112;53.282;6.150;2022-07-23T05:20:33;101956.56;;;17.35;65.96
62126;BME280;48112;53.282;6.150;2022-07-23T05:21:36;101954.19;;;17.34;65.89
62126;BME280;48112;53.282;6.150;2022-07-23T05:22:39;101959.72;;;17.37;65.76
62126;BME280;48112;53.282;6.150;2022-07-23T05:23:43;101962.53;;;17.41;65.51
62126;BME280;48112;53.282;6.150;2022-07-23T05:24:45;101964.53;;;17.44;65.78
62126;BME280;48112;53.282;6.150;2022-07-23T05:25:49;101964.53;;;17.44;65.65
62126;BME280;48112;53.282;6.150;2022-07-23T05:26:52;101968.59;;;17.50;65.75
62126;BME280;48112;53.282;6.150;2022-07-23T05:27:56;101968.66;;;17.53;65.66
62126;BME280;48112;53.282;6.150;2022-07-23T05:28:59;101968.72;;;17.57;65.43
62126;BME280;48112;53.282;6.150;2022-07-23T05:30:04;101965.69;;;17.62;64.98
62126;BME280;48112;53.282;6.150;2022-07-23T05:31:09;101972.81;;;17.66;65.46
62126;BME280;48112;53.282;6.150;2022-07-23T05:32:15;101975.25;;;17.71;65.46
62126;BME280;48112;53.282;6.150;2022-07-23T05:33:24;101971.44;;;17.76;64.77
62126;BME280;48112;53.282;6.150;2022-07-23T05:34:28;101978.56;;;17.80;65.02
62126;BME280;48112;53.282;6.150;2022-07-23T05:35:31;101972.41;;;17.87;65.05